sensor_id;sensor_type;location;lat;lon;timestamp;temperature;humidity
51557;DHT22;38766;53.194;5.532;2024-02-26T00:01:41;4.50;99.90
51557;DHT22;38766;53.194;5.532;2024-02-26T00:04:09;4.50;99.90
51557;DHT22;38766;53.194;5.532;2024-02-26T00:06:34;4.50;99.90
51557;DHT22;38766;53.194;5.532;2024-02-26T00:09:00;4.50;99.90
51557;DHT22;38766;53.194;5.532;2024-02-26T00:11:28;4.50;99.90
51557;DHT22;38766;53.194;5.532;2024-02-26T00:13:53;4.50;99.90
51557;DHT22;38766;53.194;5.532;2024-02-26T00:16:19;4.50;99.90
51557;DHT22;38766;53.194;5.532;2024-02-26T00:18:44;4.50;99.90
51557;DHT22;38766;53.194;5.532;2024-02-26T00:21:10;4.50;99.90
51557;DHT22;38766;53.194;5.532;2024-02-26T00:23:36;4.50;99.90
51557;DHT22;38766;53.194;5.532;2024-02-26T00:26:01;4.50;99.90
51557;DHT22;38766;53.194;5.532;2024-02-26T00:28:27;4.50;99.90
51557;DHT22;38766;53.194;5.532;2024-02-26T00:30:54;4.50;99.90
51557;DHT22;38766;53.194;5.532;2024-02-26T00:33:22;4.40;99.90
51557;DHT22;38766;53.194;5.532;2024-02-26T00:35:48;4.50;99.90
51557;DHT22;38766;53.194;5.532;2024-02-26T00:38:14;4.50;99.90
51557;DHT22;38766;53.194;5.532;2024-02-26T00:40:40;4.50;99.90
51557;DHT22;38766;53.194;5.532;2024-02-26T00:43:06;4.50;99.90
51557;DHT22;38766;53.194;5.532;2024-02-26T00:45:32;4.50;99.90
51557;DHT22;38766;53.194;5.532;2024-02-26T00:47:58;4.50;99.90
51557;DHT22;38766;53.194;5.532;2024-02-26T00:50:24;4.50;99.90
51557;DHT22;38766;53.194;5.532;2024-02-26T00:52:49;4.50;99.90
51557;DHT22;38766;53.194;5.532;2024-02-26T00:55:15;4.60;99.90
51557;DHT22;38766;53.194;5.532;2024-02-26T00:57:41;4.50;99.90
51557;DHT22;38766;53.194;5.532;2024-02-26T01:00:07;4.60;99.90
51557;DHT22;38766;53.194;5.532;2024-02-26T01:02:36;4.60;99.90
51557;DHT22;38766;53.194;5.532;2024-02-26T01:05:02;4.50;99.90
51557;DHT22;38766;53.194;5.532;2024-02-26T01:07:28;4.50;99.90
51557;DHT22;38766;53.194;5.532;2024-02-26T01:09:53;4.60;99.90
51557;DHT22;38766;53.194;5.532;2024-02-26T01:12:19;4.50;99.90
51557;DHT22;38766;53.194;5.532;2024-02-26T01:14:45;4.60;99.90
51557;DHT22;38766;53.194;5.532;2024-02-26T01:17:10;4.60;99.90
51557;DHT22;38766;53.194;5.532;2024-02-26T01:19:36;4.60;99.90
51557;DHT22;38766;53.194;5.532;2024-02-26T01:22:01;4.60;99.90
51557;DHT22;38766;53.194;5.532;2024-02-26T01:24:29;4.60;99.90
51557;DHT22;38766;53.194;5.532;2024-02-26T01:26:55;4.60;99.90
51557;DHT22;38766;53.194;5.532;2024-02-26T01:29:20;4.60;99.90
51557;DHT22;38766;53.194;5.532;2024-02-26T01:31:46;4.60;99.90
51557;DHT22;38766;53.194;5.532;2024-02-26T01:34:12;4.60;99.90
51557;DHT22;38766;53.194;5.532;2024-02-26T01:36:38;4.50;99.90
51557;DHT22;38766;53.194;5.532;2024-02-26T01:39:03;4.60;99.90
51557;DHT22;38766;53.194;5.532;2024-02-26T01:41:29;4.50;99.90
51557;DHT22;38766;53.194;5.532;2024-02-26T01:43:55;4.50;99.90
51557;DHT22;38766;53.194;5.532;2024-02-26T01:46:20;4.60;99.90
51557;DHT22;38766;53.194;5.532;2024-02-26T01:48:47;4.50;99.90
51557;DHT22;38766;53.194;5.532;2024-02-26T01:51:15;4.50;99.90
51557;DHT22;38766;53.194;5.532;2024-02-26T01:53:43;4.50;99.90
51557;DHT22;38766;53.194;5.532;2024-02-26T01:56:09;4.50;99.90
51557;DHT22;38766;53.194;5.532;2024-02-26T01:58:35;4.50;99.90
51557;DHT22;38766;53.194;5.532;2024-02-26T02:01:02;4.50;99.90
51557;DHT22;38766;53.194;5.532;2024-02-26T02:03:28;4.40;99.90
51557;DHT22;38766;53.194;5.532;2024-02-26T02:05:55;4.40;99.90
51557;DHT22;38766;53.194;5.532;2024-02-26T02:08:22;4.40;99.90
51557;DHT22;38766;53.194;5.532;2024-02-26T02:10:48;4.40;99.90
51557;DHT22;38766;53.194;5.532;2024-02-26T02:13:14;4.40;99.90
51557;DHT22;38766;53.194;5.532;2024-02-26T02:15:40;4.40;99.90
51557;DHT22;38766;53.194;5.532;2024-02-26T02:18:06;4.30;99.90
51557;DHT22;38766;53.194;5.532;2024-02-26T02:20:32;4.40;99.90
51557;DHT22;38766;53.194;5.532;2024-02-26T02:22:59;4.30;99.90
51557;DHT22;38766;53.194;5.532;2024-02-26T02:25:24;4.40;99.90
51557;DHT22;38766;53.194;5.532;2024-02-26T02:27:50;4.30;99.90
51557;DHT22;38766;53.194;5.532;2024-02-26T02:30:17;4.40;99.90
51557;DHT22;38766;53.194;5.532;2024-02-26T02:32:43;4.40;99.90
51557;DHT22;38766;53.194;5.532;2024-02-26T02:35:09;4.40;99.90
51557;DHT22;38766;53.194;5.532;2024-02-26T02:37:35;4.30;99.90
51557;DHT22;38766;53.194;5.532;2024-02-26T02:40:00;4.30;99.90
51557;DHT22;38766;53.194;5.532;2024-02-26T02:42:26;4.30;99.90
51557;DHT22;38766;53.194;5.532;2024-02-26T02:44:52;4.40;99.90
51557;DHT22;38766;53.194;5.532;2024-02-26T02:47:17;4.40;99.90
51557;DHT22;38766;53.194;5.532;2024-02-26T02:49:43;4.40;99.90
51557;DHT22;38766;53.194;5.532;2024-02-26T02:52:08;4.40;99.90
51557;DHT22;38766;53.194;5.532;2024-02-26T02:54:34;4.40;99.90
51557;DHT22;38766;53.194;5.532;2024-02-26T02:57:01;4.40;99.90
51557;DHT22;38766;53.194;5.532;2024-02-26T02:59:27;4.30;99.90
51557;DHT22;38766;53.194;5.532;2024-02-26T03:01:52;4.30;99.90
51557;DHT22;38766;53.194;5.532;2024-02-26T03:04:18;4.30;99.90
51557;DHT22;38766;53.194;5.532;2024-02-26T03:06:44;4.30;99.90
51557;DHT22;38766;53.194;5.532;2024-02-26T03:09:09;4.30;99.90
51557;DHT22;38766;53.194;5.532;2024-02-26T03:11:35;4.30;99.90
51557;DHT22;38766;53.194;5.532;2024-02-26T03:14:01;4.30;99.90
51557;DHT22;38766;53.194;5.532;2024-02-26T03:16:26;4.30;99.90
51557;DHT22;38766;53.194;5.532;2024-02-26T03:18:52;4.30;99.90
51557;DHT22;38766;53.194;5.532;2024-02-26T03:21:18;4.30;99.90
51557;DHT22;38766;53.194;5.532;2024-02-26T03:23:43;4.30;99.90
51557;DHT22;38766;53.194;5.532;2024-02-26T03:26:09;4.30;99.90
51557;DHT22;38766;53.194;5.532;2024-02-26T03:28:39;4.30;99.90
51557;DHT22;38766;53.194;5.532;2024-02-26T03:31:04;4.30;99.90
51557;DHT22;38766;53.194;5.532;2024-02-26T03:33:30;4.30;99.90
51557;DHT22;38766;53.194;5.532;2024-02-26T03:35:55;4.30;99.90
51557;DHT22;38766;53.194;5.532;2024-02-26T03:38:21;4.30;99.90
51557;DHT22;38766;53.194;5.532;2024-02-26T03:40:47;4.30;99.90
51557;DHT22;38766;53.194;5.532;2024-02-26T03:43:13;4.30;99.90
51557;DHT22;38766;53.194;5.532;2024-02-26T03:45:38;4.30;99.90
51557;DHT22;38766;53.194;5.532;2024-02-26T03:48:04;4.30;99.90
51557;DHT22;38766;53.194;5.532;2024-02-26T03:50:30;4.30;99.90
51557;DHT22;38766;53.194;5.532;2024-02-26T03:52:56;4.30;99.90
51557;DHT22;38766;53.194;5.532;2024-02-26T03:55:22;4.30;99.90
51557;DHT22;38766;53.194;5.532;2024-02-26T03:57:53;4.30;99.90
51557;DHT22;38766;53.194;5.532;2024-02-26T04:00:20;4.30;99.90
51557;DHT22;38766;53.194;5.532;2024-02-26T04:02:47;4.30;99.90
51557;DHT22;38766;53.194;5.532;2024-02-26T04:05:13;4.30;99.90
51557;DHT22;38766;53.194;5.532;2024-02-26T04:07:40;4.30;99.90
51557;DHT22;38766;53.194;5.532;2024-02-26T04:10:09;4.30;99.90
51557;DHT22;38766;53.194;5.532;2024-02-26T04:12:35;4.30;99.90
51557;DHT22;38766;53.194;5.532;2024-02-26T04:15:01;4.30;99.90
51557;DHT22;38766;53.194;5.532;2024-02-26T04:17:26;4.30;99.90
51557;DHT22;38766;53.194;5.532;2024-02-26T04:19:52;4.30;99.90
51557;DHT22;38766;53.194;5.532;2024-02-26T04:22:17;4.40;99.90
51557;DHT22;38766;53.194;5.532;2024-02-26T04:24:43;4.40;99.90
51557;DHT22;38766;53.194;5.532;2024-02-26T04:27:09;4.40;99.90
51557;DHT22;38766;53.194;5.532;2024-02-26T04:29:34;4.40;99.90
51557;DHT22;38766;53.194;5.532;2024-02-26T04:32:00;4.40;99.90
51557;DHT22;38766;53.194;5.532;2024-02-26T04:34:25;4.50;99.90
51557;DHT22;38766;53.194;5.532;2024-02-26T04:36:51;4.50;99.90
51557;DHT22;38766;53.194;5.532;2024-02-26T04:39:16;4.50;99.90
51557;DHT22;38766;53.194;5.532;2024-02-26T04:41:42;4.40;99.90
51557;DHT22;38766;53.194;5.532;2024-02-26T04:44:07;4.50;99.90
51557;DHT22;38766;53.194;5.532;2024-02-26T04:46:33;4.50;99.90
51557;DHT22;38766;53.194;5.532;2024-02-26T04:49:00;4.50;99.90
51557;DHT22;38766;53.194;5.532;2024-02-26T04:51:25;4.50;99.90
51557;DHT22;38766;53.194;5.532;2024-02-26T04:53:51;4.50;99.90
51557;DHT22;38766;53.194;5.532;2024-02-26T04:56:20;4.50;99.90
51557;DHT22;38766;53.194;5.532;2024-02-26T04:58:46;4.50;99.90
51557;DHT22;38766;53.194;5.532;2024-02-26T05:01:11;4.60;99.90
51557;DHT22;38766;53.194;5.532;2024-02-26T05:03:37;4.60;99.90
51557;DHT22;38766;53.194;5.532;2024-02-26T05:06:04;4.60;99.90
51557;DHT22;38766;53.194;5.532;2024-02-26T05:08:29;4.60;99.90
51557;DHT22;38766;53.194;5.532;2024-02-26T05:10:56;4.60;99.90
51557;DHT22;38766;53.194;5.532;2024-02-26T05:13:22;4.50;99.90
51557;DHT22;38766;53.194;5.532;2024-02-26T05:15:47;4.60;99.90
51557;DHT22;38766;53.194;5.532;2024-02-26T05:18:15;4.60;99.90
51557;DHT22;38766;53.194;5.532;2024-02-26T05:20:41;4.60;99.90
51557;DHT22;38766;53.194;5.532;2024-02-26T05:23:06;4.60;99.90
51557;DHT22;38766;53.194;5.532;2024-02-26T05:25:32;4.60;99.90
51557;DHT22;38766;53.194;5.532;2024-02-26T05:27:57;4.60;99.90
51557;DHT22;38766;53.194;5.532;2024-02-26T05:30:23;4.70;99.90
51557;DHT22;38766;53.194;5.532;2024-02-26T05:32:48;4.70;99.90
51557;DHT22;38766;53.194;5.532;2024-02-26T05:35:14;4.70;99.90
51557;DHT22;38766;53.194;5.532;2024-02-26T05:37:40;4.70;99.90
51557;DHT22;38766;53.194;5.532;2024-02-26T05:40:06;4.70;99.90
51557;DHT22;38766;53.194;5.532;2024-02-26T05:42:32;4.70;99.90
51557;DHT22;38766;53.194;5.532;2024-02-26T05:44:58;4.70;99.90
51557;DHT22;38766;53.194;5.532;2024-02-26T05:47:24;4.70;99.90
51557;DHT22;38766;53.194;5.532;2024-02-26T05:49:50;4.70;99.90
51557;DHT22;38766;53.194;5.532;2024-02-26T05:52:15;4.70;99.90
51557;DHT22;38766;53.194;5.532;2024-02-26T05:54:41;4.70;99.90
51557;DHT22;38766;53.194;5.532;2024-02-26T05:57:06;4.70;99.90
51557;DHT22;38766;53.194;5.532;2024-02-26T05:59:32;4.70;99.90
51557;DHT22;38766;53.194;5.532;2024-02-26T06:01:58;4.70;99.90
51557;DHT22;38766;53.194;5.532;2024-02-26T06:04:23;4.70;99.90
51557;DHT22;38766;53.194;5.532;2024-02-26T06:06:49;4.70;99.90
51557;DHT22;38766;53.194;5.532;2024-02-26T06:09:15;4.70;99.90
51557;DHT22;38766;53.194;5.532;2024-02-26T06:11:40;4.70;99.90
51557;DHT22;38766;53.194;5.532;2024-02-26T06:14:06;4.60;99.90
51557;DHT22;38766;53.194;5.532;2024-02-26T06:16:32;4.60;99.90
51557;DHT22;38766;53.194;5.532;2024-02-26T06:18:58;4.60;99.90
51557;DHT22;38766;53.194;5.532;2024-02-26T06:21:25;4.60;99.90
51557;DHT22;38766;53.194;5.532;2024-02-26T06:23:51;4.60;99.90
51557;DHT22;38766;53.194;5.532;2024-02-26T06:26:17;4.60;99.90
51557;DHT22;38766;53.194;5.532;2024-02-26T06:28:42;4.60;99.90
51557;DHT22;38766;53.194;5.532;2024-02-26T06:31:08;4.60;99.90
51557;DHT22;38766;53.194;5.532;2024-02-26T06:33:34;4.60;99.90
51557;DHT22;38766;53.194;5.532;2024-02-26T06:35:59;4.60;99.90
51557;DHT22;38766;53.194;5.532;2024-02-26T06:38:25;4.70;99.90
51557;DHT22;38766;53.194;5.532;2024-02-26T06:40:50;4.70;99.90
51557;DHT22;38766;53.194;5.532;2024-02-26T06:43:16;4.70;99.90
51557;DHT22;38766;53.194;5.532;2024-02-26T06:45:42;4.70;99.90
51557;DHT22;38766;53.194;5.532;2024-02-26T06:48:07;4.70;99.90
51557;DHT22;38766;53.194;5.532;2024-02-26T06:50:33;4.70;99.90
51557;DHT22;38766;53.194;5.532;2024-02-26T06:52:58;4.60;99.90
51557;DHT22;38766;53.194;5.532;2024-02-26T06:55:24;4.70;99.90
51557;DHT22;38766;53.194;5.532;2024-02-26T06:57:50;4.60;99.90
51557;DHT22;38766;53.194;5.532;2024-02-26T07:00:15;4.60;99.90
51557;DHT22;38766;53.194;5.532;2024-02-26T07:02:42;4.60;99.90
51557;DHT22;38766;53.194;5.532;2024-02-26T07:05:08;4.60;99.90
51557;DHT22;38766;53.194;5.532;2024-02-26T07:07:34;4.60;99.90
51557;DHT22;38766;53.194;5.532;2024-02-26T07:10:00;4.60;99.90
51557;DHT22;38766;53.194;5.532;2024-02-26T07:12:29;4.60;99.90
51557;DHT22;38766;53.194;5.532;2024-02-26T07:14:55;4.60;99.90
51557;DHT22;38766;53.194;5.532;2024-02-26T07:17:20;4.60;99.90
51557;DHT22;38766;53.194;5.532;2024-02-26T07:19:46;4.60;99.90
51557;DHT22;38766;53.194;5.532;2024-02-26T07:22:11;4.60;99.90
51557;DHT22;38766;53.194;5.532;2024-02-26T07:24:37;4.60;99.90
51557;DHT22;38766;53.194;5.532;2024-02-26T07:27:03;4.60;99.90
51557;DHT22;38766;53.194;5.532;2024-02-26T07:29:28;4.60;99.90
51557;DHT22;38766;53.194;5.532;2024-02-26T07:31:54;4.60;99.90
51557;DHT22;38766;53.194;5.532;2024-02-26T07:34:19;4.60;99.90
51557;DHT22;38766;53.194;5.532;2024-02-26T07:36:45;4.60;99.90
51557;DHT22;38766;53.194;5.532;2024-02-26T07:39:11;4.60;99.90
51557;DHT22;38766;53.194;5.532;2024-02-26T07:41:36;4.60;99.90
51557;DHT22;38766;53.194;5.532;2024-02-26T07:44:04;4.60;99.90
51557;DHT22;38766;53.194;5.532;2024-02-26T07:46:29;4.70;99.90
51557;DHT22;38766;53.194;5.532;2024-02-26T07:48:55;4.60;99.90
51557;DHT22;38766;53.194;5.532;2024-02-26T07:51:21;4.70;99.90
51557;DHT22;38766;53.194;5.532;2024-02-26T07:53:47;4.70;99.90
51557;DHT22;38766;53.194;5.532;2024-02-26T07:56:13;4.70;99.90
51557;DHT22;38766;53.194;5.532;2024-02-26T07:58:39;4.70;99.90
51557;DHT22;38766;53.194;5.532;2024-02-26T08:01:04;4.70;99.90
51557;DHT22;38766;53.194;5.532;2024-02-26T08:03:30;4.70;99.90
51557;DHT22;38766;53.194;5.532;2024-02-26T08:05:55;4.80;99.90
51557;DHT22;38766;53.194;5.532;2024-02-26T08:08:21;4.80;99.90
51557;DHT22;38766;53.194;5.532;2024-02-26T08:10:47;4.80;99.90
51557;DHT22;38766;53.194;5.532;2024-02-26T08:13:12;4.80;99.90
51557;DHT22;38766;53.194;5.532;2024-02-26T08:15:38;4.80;99.90
51557;DHT22;38766;53.194;5.532;2024-02-26T08:18:04;4.90;99.90
51557;DHT22;38766;53.194;5.532;2024-02-26T08:20:30;4.90;99.90
51557;DHT22;38766;53.194;5.532;2024-02-26T08:22:56;4.90;99.90
51557;DHT22;38766;53.194;5.532;2024-02-26T08:25:23;4.90;99.90
51557;DHT22;38766;53.194;5.532;2024-02-26T08:27:49;4.90;99.90
51557;DHT22;38766;53.194;5.532;2024-02-26T08:30:15;5.00;99.90
51557;DHT22;38766;53.194;5.532;2024-02-26T08:32:45;5.00;99.90
51557;DHT22;38766;53.194;5.532;2024-02-26T08:35:11;5.10;99.90
51557;DHT22;38766;53.194;5.532;2024-02-26T08:37:37;5.10;99.90
51557;DHT22;38766;53.194;5.532;2024-02-26T08:40:03;5.10;99.90
51557;DHT22;38766;53.194;5.532;2024-02-26T08:42:29;5.20;99.90
51557;DHT22;38766;53.194;5.532;2024-02-26T08:44:55;5.20;99.90
51557;DHT22;38766;53.194;5.532;2024-02-26T08:47:21;5.30;99.90
51557;DHT22;38766;53.194;5.532;2024-02-26T08:49:46;5.30;99.90
51557;DHT22;38766;53.194;5.532;2024-02-26T08:52:12;5.30;99.90
51557;DHT22;38766;53.194;5.532;2024-02-26T08:54:38;5.30;99.90
51557;DHT22;38766;53.194;5.532;2024-02-26T08:57:03;5.40;99.90
51557;DHT22;38766;53.194;5.532;2024-02-26T08:59:29;5.40;99.90
51557;DHT22;38766;53.194;5.532;2024-02-26T09:01:55;5.40;99.90
51557;DHT22;38766;53.194;5.532;2024-02-26T09:04:20;5.50;99.90
51557;DHT22;38766;53.194;5.532;2024-02-26T09:06:46;5.50;99.90
51557;DHT22;38766;53.194;5.532;2024-02-26T09:09:12;5.50;99.90
51557;DHT22;38766;53.194;5.532;2024-02-26T09:11:38;5.50;99.90
51557;DHT22;38766;53.194;5.532;2024-02-26T09:14:03;5.60;99.90
51557;DHT22;38766;53.194;5.532;2024-02-26T09:16:30;5.60;99.90
51557;DHT22;38766;53.194;5.532;2024-02-26T09:18:56;5.60;99.90
51557;DHT22;38766;53.194;5.532;2024-02-26T09:21:22;5.60;99.90
51557;DHT22;38766;53.194;5.532;2024-02-26T09:23:52;5.70;99.90
51557;DHT22;38766;53.194;5.532;2024-02-26T09:26:18;5.70;99.90
51557;DHT22;38766;53.194;5.532;2024-02-26T09:28:44;5.70;99.90
51557;DHT22;38766;53.194;5.532;2024-02-26T09:31:10;5.80;99.90
51557;DHT22;38766;53.194;5.532;2024-02-26T09:33:35;5.80;99.90
51557;DHT22;38766;53.194;5.532;2024-02-26T09:36:02;5.80;99.90
51557;DHT22;38766;53.194;5.532;2024-02-26T09:38:28;5.90;99.90
51557;DHT22;38766;53.194;5.532;2024-02-26T09:40:56;5.90;99.90
51557;DHT22;38766;53.194;5.532;2024-02-26T09:43:22;5.90;99.90
51557;DHT22;38766;53.194;5.532;2024-02-26T09:45:54;6.00;99.90
51557;DHT22;38766;53.194;5.532;2024-02-26T09:48:22;6.00;99.90
51557;DHT22;38766;53.194;5.532;2024-02-26T09:50:49;6.00;99.90
51557;DHT22;38766;53.194;5.532;2024-02-26T09:53:15;6.00;99.90
51557;DHT22;38766;53.194;5.532;2024-02-26T09:55:42;6.10;99.90
51557;DHT22;38766;53.194;5.532;2024-02-26T09:58:08;6.10;99.90
51557;DHT22;38766;53.194;5.532;2024-02-26T10:00:37;6.10;99.90
51557;DHT22;38766;53.194;5.532;2024-02-26T10:03:05;6.20;99.90
51557;DHT22;38766;53.194;5.532;2024-02-26T10:05:32;6.20;99.90
51557;DHT22;38766;53.194;5.532;2024-02-26T10:08:00;6.20;99.90
51557;DHT22;38766;53.194;5.532;2024-02-26T10:10:28;6.20;99.90
51557;DHT22;38766;53.194;5.532;2024-02-26T10:12:54;6.20;99.90
51557;DHT22;38766;53.194;5.532;2024-02-26T10:15:20;6.30;99.90
51557;DHT22;38766;53.194;5.532;2024-02-26T10:17:46;6.20;99.90
51557;DHT22;38766;53.194;5.532;2024-02-26T10:20:16;6.30;99.90
51557;DHT22;38766;53.194;5.532;2024-02-26T10:22:49;6.30;99.90
51557;DHT22;38766;53.194;5.532;2024-02-26T10:25:15;6.40;99.90
51557;DHT22;38766;53.194;5.532;2024-02-26T10:27:41;6.40;99.90
51557;DHT22;38766;53.194;5.532;2024-02-26T10:30:17;6.50;99.90
51557;DHT22;38766;53.194;5.532;2024-02-26T10:32:45;6.50;99.90
51557;DHT22;38766;53.194;5.532;2024-02-26T10:35:11;6.50;99.90
51557;DHT22;38766;53.194;5.532;2024-02-26T10:37:36;6.60;99.90
51557;DHT22;38766;53.194;5.532;2024-02-26T10:40:02;6.50;99.90
51557;DHT22;38766;53.194;5.532;2024-02-26T10:42:30;6.50;99.90
51557;DHT22;38766;53.194;5.532;2024-02-26T10:44:55;6.50;99.90
51557;DHT22;38766;53.194;5.532;2024-02-26T10:47:24;6.50;99.90
51557;DHT22;38766;53.194;5.532;2024-02-26T10:49:50;6.50;99.90
51557;DHT22;38766;53.194;5.532;2024-02-26T10:52:19;6.60;99.90
51557;DHT22;38766;53.194;5.532;2024-02-26T10:54:47;6.60;99.90
51557;DHT22;38766;53.194;5.532;2024-02-26T10:57:13;6.60;99.90
51557;DHT22;38766;53.194;5.532;2024-02-26T10:59:42;6.60;99.90
51557;DHT22;38766;53.194;5.532;2024-02-26T11:02:10;6.60;99.90
51557;DHT22;38766;53.194;5.532;2024-02-26T11:04:37;6.60;99.90
51557;DHT22;38766;53.194;5.532;2024-02-26T11:07:03;6.60;99.90
51557;DHT22;38766;53.194;5.532;2024-02-26T11:09:30;6.60;99.90
51557;DHT22;38766;53.194;5.532;2024-02-26T11:11:57;6.60;99.90
51557;DHT22;38766;53.194;5.532;2024-02-26T11:14:24;6.60;99.90
51557;DHT22;38766;53.194;5.532;2024-02-26T11:16:51;6.60;99.90
51557;DHT22;38766;53.194;5.532;2024-02-26T11:19:18;6.60;99.90
51557;DHT22;38766;53.194;5.532;2024-02-26T11:21:43;6.70;99.90
51557;DHT22;38766;53.194;5.532;2024-02-26T11:24:12;6.60;99.90
51557;DHT22;38766;53.194;5.532;2024-02-26T11:26:59;6.60;99.90
51557;DHT22;38766;53.194;5.532;2024-02-26T11:29:29;6.70;99.90
51557;DHT22;38766;53.194;5.532;2024-02-26T11:31:59;6.60;99.90
51557;DHT22;38766;53.194;5.532;2024-02-26T11:34:25;6.70;99.90
51557;DHT22;38766;53.194;5.532;2024-02-26T11:36:51;6.70;99.90
51557;DHT22;38766;53.194;5.532;2024-02-26T11:39:17;6.70;99.90
51557;DHT22;38766;53.194;5.532;2024-02-26T11:41:43;6.70;99.90
51557;DHT22;38766;53.194;5.532;2024-02-26T11:44:09;6.80;99.90
51557;DHT22;38766;53.194;5.532;2024-02-26T11:46:42;6.70;99.90
51557;DHT22;38766;53.194;5.532;2024-02-26T11:51:57;6.80;99.90
51557;DHT22;38766;53.194;5.532;2024-02-26T12:00:11;6.90;99.90
51557;DHT22;38766;53.194;5.532;2024-02-26T12:02:46;6.90;99.90
51557;DHT22;38766;53.194;5.532;2024-02-26T12:05:14;6.90;99.90
51557;DHT22;38766;53.194;5.532;2024-02-26T12:07:44;6.90;99.90
51557;DHT22;38766;53.194;5.532;2024-02-26T12:10:21;7.00;99.90
51557;DHT22;38766;53.194;5.532;2024-02-26T12:12:53;7.00;99.90
51557;DHT22;38766;53.194;5.532;2024-02-26T12:15:19;7.00;99.90
51557;DHT22;38766;53.194;5.532;2024-02-26T12:17:49;7.00;99.90
51557;DHT22;38766;53.194;5.532;2024-02-26T12:20:17;7.00;99.90
51557;DHT22;38766;53.194;5.532;2024-02-26T12:22:45;7.00;99.90
51557;DHT22;38766;53.194;5.532;2024-02-26T12:25:13;6.90;99.90
51557;DHT22;38766;53.194;5.532;2024-02-26T12:27:39;6.90;99.90
51557;DHT22;38766;53.194;5.532;2024-02-26T12:30:05;6.90;99.90
51557;DHT22;38766;53.194;5.532;2024-02-26T12:32:32;6.90;99.90
51557;DHT22;38766;53.194;5.532;2024-02-26T12:34:58;6.90;99.90
51557;DHT22;38766;53.194;5.532;2024-02-26T12:37:25;6.90;99.90
51557;DHT22;38766;53.194;5.532;2024-02-26T12:39:51;6.90;99.90
51557;DHT22;38766;53.194;5.532;2024-02-26T12:42:17;6.80;99.90
51557;DHT22;38766;53.194;5.532;2024-02-26T12:44:45;6.80;99.90
51557;DHT22;38766;53.194;5.532;2024-02-26T12:47:11;6.80;99.90
51557;DHT22;38766;53.194;5.532;2024-02-26T12:49:42;6.80;99.90
51557;DHT22;38766;53.194;5.532;2024-02-26T12:52:10;6.80;99.90
51557;DHT22;38766;53.194;5.532;2024-02-26T12:54:35;6.70;99.90
51557;DHT22;38766;53.194;5.532;2024-02-26T12:57:05;6.70;99.90
51557;DHT22;38766;53.194;5.532;2024-02-26T12:59:32;6.70;99.90
51557;DHT22;38766;53.194;5.532;2024-02-26T13:01:59;6.70;99.90
51557;DHT22;38766;53.194;5.532;2024-02-26T13:04:26;6.70;99.90
51557;DHT22;38766;53.194;5.532;2024-02-26T13:06:53;6.70;99.90
51557;DHT22;38766;53.194;5.532;2024-02-26T13:09:18;6.60;99.90
51557;DHT22;38766;53.194;5.532;2024-02-26T13:11:44;6.60;99.90
51557;DHT22;38766;53.194;5.532;2024-02-26T13:14:22;6.60;99.90
51557;DHT22;38766;53.194;5.532;2024-02-26T13:16:55;6.60;99.90
51557;DHT22;38766;53.194;5.532;2024-02-26T13:19:21;6.60;99.90
51557;DHT22;38766;53.194;5.532;2024-02-26T13:21:47;6.60;99.90
51557;DHT22;38766;53.194;5.532;2024-02-26T13:24:13;6.60;99.90
51557;DHT22;38766;53.194;5.532;2024-02-26T13:26:39;6.60;99.90
51557;DHT22;38766;53.194;5.532;2024-02-26T13:29:05;6.60;99.90
51557;DHT22;38766;53.194;5.532;2024-02-26T13:31:31;6.60;99.90
51557;DHT22;38766;53.194;5.532;2024-02-26T13:33:57;6.50;99.90
51557;DHT22;38766;53.194;5.532;2024-02-26T13:36:23;6.50;99.90
51557;DHT22;38766;53.194;5.532;2024-02-26T13:38:52;6.50;99.90
51557;DHT22;38766;53.194;5.532;2024-02-26T13:41:18;6.50;99.90
51557;DHT22;38766;53.194;5.532;2024-02-26T13:43:44;6.50;99.90
51557;DHT22;38766;53.194;5.532;2024-02-26T13:46:10;6.50;99.90
51557;DHT22;38766;53.194;5.532;2024-02-26T13:48:41;6.50;99.90
51557;DHT22;38766;53.194;5.532;2024-02-26T13:51:06;6.40;99.90
51557;DHT22;38766;53.194;5.532;2024-02-26T13:53:32;6.40;99.90
51557;DHT22;38766;53.194;5.532;2024-02-26T13:55:58;6.40;99.90
51557;DHT22;38766;53.194;5.532;2024-02-26T13:58:27;6.40;99.90
51557;DHT22;38766;53.194;5.532;2024-02-26T14:00:55;6.40;99.90
51557;DHT22;38766;53.194;5.532;2024-02-26T14:03:22;6.40;99.90
51557;DHT22;38766;53.194;5.532;2024-02-26T14:05:47;6.40;99.90
51557;DHT22;38766;53.194;5.532;2024-02-26T14:08:13;6.40;99.90
51557;DHT22;38766;53.194;5.532;2024-02-26T14:10:39;6.40;99.90
51557;DHT22;38766;53.194;5.532;2024-02-26T14:13:22;6.40;99.90
51557;DHT22;38766;53.194;5.532;2024-02-26T14:15:48;6.40;99.90
51557;DHT22;38766;53.194;5.532;2024-02-26T14:18:13;6.40;99.90
51557;DHT22;38766;53.194;5.532;2024-02-26T14:20:39;6.40;99.90
51557;DHT22;38766;53.194;5.532;2024-02-26T14:23:05;6.40;99.90
51557;DHT22;38766;53.194;5.532;2024-02-26T14:25:32;6.40;99.90
51557;DHT22;38766;53.194;5.532;2024-02-26T14:27:57;6.40;99.90
51557;DHT22;38766;53.194;5.532;2024-02-26T14:30:25;6.40;99.90
51557;DHT22;38766;53.194;5.532;2024-02-26T14:32:51;6.40;99.90
51557;DHT22;38766;53.194;5.532;2024-02-26T14:35:17;6.40;99.90
51557;DHT22;38766;53.194;5.532;2024-02-26T14:37:43;6.40;99.90
51557;DHT22;38766;53.194;5.532;2024-02-26T14:40:11;6.50;99.90
51557;DHT22;38766;53.194;5.532;2024-02-26T14:42:37;6.40;99.90
51557;DHT22;38766;53.194;5.532;2024-02-26T14:45:03;6.40;99.90
51557;DHT22;38766;53.194;5.532;2024-02-26T14:47:32;6.40;99.90
51557;DHT22;38766;53.194;5.532;2024-02-26T14:49:58;6.40;99.90
51557;DHT22;38766;53.194;5.532;2024-02-26T14:52:23;6.40;99.90
51557;DHT22;38766;53.194;5.532;2024-02-26T14:54:49;6.40;99.90
51557;DHT22;38766;53.194;5.532;2024-02-26T14:57:16;6.40;99.90
51557;DHT22;38766;53.194;5.532;2024-02-26T14:59:42;6.50;99.90
51557;DHT22;38766;53.194;5.532;2024-02-26T15:02:09;6.50;99.90
51557;DHT22;38766;53.194;5.532;2024-02-26T15:04:38;6.40;99.90
51557;DHT22;38766;53.194;5.532;2024-02-26T15:07:04;6.40;99.90
51557;DHT22;38766;53.194;5.532;2024-02-26T15:09:30;6.50;99.90
51557;DHT22;38766;53.194;5.532;2024-02-26T15:11:55;6.50;99.90
51557;DHT22;38766;53.194;5.532;2024-02-26T15:14:23;6.40;99.90
51557;DHT22;38766;53.194;5.532;2024-02-26T15:16:51;6.40;99.90
51557;DHT22;38766;53.194;5.532;2024-02-26T15:19:17;6.50;99.90
51557;DHT22;38766;53.194;5.532;2024-02-26T15:21:47;6.40;99.90
51557;DHT22;38766;53.194;5.532;2024-02-26T15:24:13;6.40;99.90
51557;DHT22;38766;53.194;5.532;2024-02-26T15:26:41;6.40;99.90
51557;DHT22;38766;53.194;5.532;2024-02-26T15:29:07;6.40;99.90
51557;DHT22;38766;53.194;5.532;2024-02-26T15:31:34;6.40;99.90
51557;DHT22;38766;53.194;5.532;2024-02-26T15:34:00;6.40;99.90
51557;DHT22;38766;53.194;5.532;2024-02-26T15:36:26;6.40;99.90
51557;DHT22;38766;53.194;5.532;2024-02-26T15:38:51;6.40;99.90
51557;DHT22;38766;53.194;5.532;2024-02-26T15:41:17;6.40;99.90
51557;DHT22;38766;53.194;5.532;2024-02-26T15:43:42;6.30;99.90
51557;DHT22;38766;53.194;5.532;2024-02-26T15:46:08;6.40;99.90
51557;DHT22;38766;53.194;5.532;2024-02-26T15:48:36;6.30;99.90